sensor_id;sensor_type;location;lat;lon;timestamp;P1;durP1;ratioP1;P2;durP2;ratioP2
3811;SDS011;1921;49.368;11.068;2023-06-10T00:01:37;63.00;;;52.00;;
3811;SDS011;1921;49.368;11.068;2023-06-10T00:04:03;62.30;;;52.47;;
3811;SDS011;1921;49.368;11.068;2023-06-10T00:06:29;62.80;;;52.97;;
3811;SDS011;1921;49.368;11.068;2023-06-10T00:09:00;60.57;;;52.00;;
3811;SDS011;1921;49.368;11.068;2023-06-10T00:11:30;67.83;;;52.70;;
3811;SDS011;1921;49.368;11.068;2023-06-10T00:13:57;64.30;;;52.20;;
3811;SDS011;1921;49.368;11.068;2023-06-10T00:16:23;62.60;;;52.70;;
3811;SDS011;1921;49.368;11.068;2023-06-10T00:18:50;61.17;;;52.10;;
3811;SDS011;1921;49.368;11.068;2023-06-10T00:21:16;63.77;;;52.93;;
3811;SDS011;1921;49.368;11.068;2023-06-10T00:23:42;71.93;;;52.20;;
3811;SDS011;1921;49.368;11.068;2023-06-10T00:26:08;62.97;;;52.93;;
3811;SDS011;1921;49.368;11.068;2023-06-10T00:28:34;61.17;;;52.17;;
3811;SDS011;1921;49.368;11.068;2023-06-10T00:31:00;59.90;;;51.67;;
3811;SDS011;1921;49.368;11.068;2023-06-10T00:33:26;66.93;;;53.03;;
3811;SDS011;1921;49.368;11.068;2023-06-10T00:35:52;62.60;;;52.97;;
3811;SDS011;1921;49.368;11.068;2023-06-10T00:38:18;64.43;;;52.57;;
3811;SDS011;1921;49.368;11.068;2023-06-10T00:40:44;62.07;;;52.13;;
3811;SDS011;1921;49.368;11.068;2023-06-10T00:43:10;59.73;;;51.77;;
3811;SDS011;1921;49.368;11.068;2023-06-10T00:45:35;64.10;;;52.70;;
3811;SDS011;1921;49.368;11.068;2023-06-10T00:48:01;67.83;;;52.83;;
3811;SDS011;1921;49.368;11.068;2023-06-10T00:50:28;61.50;;;52.30;;
3811;SDS011;1921;49.368;11.068;2023-06-10T00:52:55;62.10;;;52.37;;
3811;SDS011;1921;49.368;11.068;2023-06-10T00:55:22;63.87;;;52.60;;
3811;SDS011;1921;49.368;11.068;2023-06-10T00:57:49;62.30;;;52.83;;
3811;SDS011;1921;49.368;11.068;2023-06-10T01:00:16;63.30;;;52.57;;
3811;SDS011;1921;49.368;11.068;2023-06-10T01:02:42;61.63;;;51.87;;
3811;SDS011;1921;49.368;11.068;2023-06-10T01:05:08;62.97;;;52.23;;
3811;SDS011;1921;49.368;11.068;2023-06-10T01:07:50;61.60;;;52.80;;
3811;SDS011;1921;49.368;11.068;2023-06-10T01:10:38;59.70;;;52.07;;
3811;SDS011;1921;49.368;11.068;2023-06-10T01:13:10;60.80;;;51.80;;
3811;SDS011;1921;49.368;11.068;2023-06-10T01:15:38;66.43;;;53.10;;
3811;SDS011;1921;49.368;11.068;2023-06-10T01:18:05;61.97;;;52.73;;
3811;SDS011;1921;49.368;11.068;2023-06-10T01:20:43;66.70;;;51.67;;
3811;SDS011;1921;49.368;11.068;2023-06-10T01:23:11;61.10;;;52.03;;
3811;SDS011;1921;49.368;11.068;2023-06-10T01:25:38;61.40;;;52.63;;
3811;SDS011;1921;49.368;11.068;2023-06-10T01:28:49;61.20;;;52.70;;
3811;SDS011;1921;49.368;11.068;2023-06-10T01:31:27;60.53;;;52.30;;
3811;SDS011;1921;49.368;11.068;2023-06-10T01:34:13;60.00;;;52.10;;
3811;SDS011;1921;49.368;11.068;2023-06-10T01:37:37;61.60;;;52.20;;
3811;SDS011;1921;49.368;11.068;2023-06-10T01:40:05;65.43;;;53.17;;
3811;SDS011;1921;49.368;11.068;2023-06-10T01:42:33;61.77;;;52.60;;
3811;SDS011;1921;49.368;11.068;2023-06-10T01:44:59;62.87;;;52.20;;
3811;SDS011;1921;49.368;11.068;2023-06-10T01:47:24;61.33;;;52.67;;
3811;SDS011;1921;49.368;11.068;2023-06-10T01:49:50;63.17;;;53.30;;
3811;SDS011;1921;49.368;11.068;2023-06-10T01:52:16;61.63;;;52.37;;
3811;SDS011;1921;49.368;11.068;2023-06-10T01:54:42;61.70;;;53.40;;
3811;SDS011;1921;49.368;11.068;2023-06-10T01:57:08;61.60;;;53.00;;
3811;SDS011;1921;49.368;11.068;2023-06-10T01:59:33;65.77;;;53.60;;
3811;SDS011;1921;49.368;11.068;2023-06-10T02:02:01;62.47;;;53.17;;
3811;SDS011;1921;49.368;11.068;2023-06-10T02:04:27;63.60;;;53.43;;
3811;SDS011;1921;49.368;11.068;2023-06-10T02:06:52;63.43;;;53.63;;
3811;SDS011;1921;49.368;11.068;2023-06-10T02:09:18;61.07;;;53.13;;
3811;SDS011;1921;49.368;11.068;2023-06-10T02:11:44;62.17;;;52.73;;
3811;SDS011;1921;49.368;11.068;2023-06-10T02:14:10;64.80;;;53.70;;
3811;SDS011;1921;49.368;11.068;2023-06-10T02:16:35;62.30;;;52.93;;
3811;SDS011;1921;49.368;11.068;2023-06-10T02:19:01;64.43;;;53.57;;
3811;SDS011;1921;49.368;11.068;2023-06-10T02:21:30;62.00;;;53.10;;
3811;SDS011;1921;49.368;11.068;2023-06-10T02:23:56;63.00;;;53.23;;
3811;SDS011;1921;49.368;11.068;2023-06-10T02:26:22;68.20;;;54.33;;
3811;SDS011;1921;49.368;11.068;2023-06-10T02:28:48;63.40;;;53.97;;
3811;SDS011;1921;49.368;11.068;2023-06-10T02:31:13;63.73;;;53.03;;
3811;SDS011;1921;49.368;11.068;2023-06-10T02:33:39;65.53;;;53.13;;
3811;SDS011;1921;49.368;11.068;2023-06-10T02:36:05;64.10;;;53.50;;
3811;SDS011;1921;49.368;11.068;2023-06-10T02:38:31;64.17;;;53.30;;
3811;SDS011;1921;49.368;11.068;2023-06-10T02:40:57;64.00;;;53.03;;
3811;SDS011;1921;49.368;11.068;2023-06-10T02:43:23;63.83;;;53.50;;
3811;SDS011;1921;49.368;11.068;2023-06-10T02:45:49;67.07;;;53.43;;
3811;SDS011;1921;49.368;11.068;2023-06-10T02:48:14;68.03;;;53.40;;
3811;SDS011;1921;49.368;11.068;2023-06-10T02:50:40;64.97;;;53.90;;
3811;SDS011;1921;49.368;11.068;2023-06-10T02:53:06;61.83;;;52.80;;
3811;SDS011;1921;49.368;11.068;2023-06-10T02:55:32;62.13;;;52.53;;
3811;SDS011;1921;49.368;11.068;2023-06-10T02:57:57;65.27;;;53.60;;
3811;SDS011;1921;49.368;11.068;2023-06-10T03:00:24;64.20;;;53.50;;
3811;SDS011;1921;49.368;11.068;2023-06-10T03:02:50;62.43;;;53.40;;
3811;SDS011;1921;49.368;11.068;2023-06-10T03:05:15;62.77;;;54.10;;
3811;SDS011;1921;49.368;11.068;2023-06-10T03:07:42;63.93;;;53.70;;
3811;SDS011;1921;49.368;11.068;2023-06-10T03:10:07;68.27;;;54.37;;
3811;SDS011;1921;49.368;11.068;2023-06-10T03:12:33;67.63;;;53.87;;
3811;SDS011;1921;49.368;11.068;2023-06-10T03:14:59;63.07;;;53.60;;
3811;SDS011;1921;49.368;11.068;2023-06-10T03:17:25;64.70;;;53.23;;
3811;SDS011;1921;49.368;11.068;2023-06-10T03:19:50;62.70;;;53.53;;
3811;SDS011;1921;49.368;11.068;2023-06-10T03:22:16;66.23;;;54.10;;
3811;SDS011;1921;49.368;11.068;2023-06-10T03:24:42;64.03;;;54.40;;
3811;SDS011;1921;49.368;11.068;2023-06-10T03:27:11;65.20;;;53.93;;
3811;SDS011;1921;49.368;11.068;2023-06-10T03:29:38;63.37;;;53.37;;
3811;SDS011;1921;49.368;11.068;2023-06-10T03:32:05;70.67;;;54.63;;
3811;SDS011;1921;49.368;11.068;2023-06-10T03:34:31;68.40;;;53.90;;
3811;SDS011;1921;49.368;11.068;2023-06-10T03:36:57;77.43;;;55.50;;
3811;SDS011;1921;49.368;11.068;2023-06-10T03:39:23;66.43;;;53.90;;
3811;SDS011;1921;49.368;11.068;2023-06-10T03:41:49;65.70;;;53.83;;
3811;SDS011;1921;49.368;11.068;2023-06-10T03:44:16;65.73;;;54.80;;
3811;SDS011;1921;49.368;11.068;2023-06-10T03:46:41;66.17;;;55.17;;
3811;SDS011;1921;49.368;11.068;2023-06-10T03:49:07;70.60;;;56.20;;
3811;SDS011;1921;49.368;11.068;2023-06-10T03:51:34;69.93;;;55.70;;
3811;SDS011;1921;49.368;11.068;2023-06-10T03:54:01;67.93;;;54.90;;
3811;SDS011;1921;49.368;11.068;2023-06-10T03:56:26;69.53;;;55.27;;
3811;SDS011;1921;49.368;11.068;2023-06-10T03:58:53;67.40;;;54.30;;
3811;SDS011;1921;49.368;11.068;2023-06-10T04:01:19;69.30;;;54.53;;
3811;SDS011;1921;49.368;11.068;2023-06-10T04:03:46;71.00;;;56.00;;
3811;SDS011;1921;49.368;11.068;2023-06-10T04:06:13;70.23;;;55.37;;
3811;SDS011;1921;49.368;11.068;2023-06-10T04:08:40;71.10;;;56.37;;
3811;SDS011;1921;49.368;11.068;2023-06-10T04:11:06;70.77;;;56.17;;
3811;SDS011;1921;49.368;11.068;2023-06-10T04:13:32;73.93;;;57.30;;
3811;SDS011;1921;49.368;11.068;2023-06-10T04:15:57;71.40;;;55.70;;
3811;SDS011;1921;49.368;11.068;2023-06-10T04:18:24;72.57;;;56.63;;
3811;SDS011;1921;49.368;11.068;2023-06-10T04:20:50;72.77;;;56.43;;
3811;SDS011;1921;49.368;11.068;2023-06-10T04:23:16;74.20;;;56.30;;
3811;SDS011;1921;49.368;11.068;2023-06-10T04:25:42;76.07;;;57.70;;
3811;SDS011;1921;49.368;11.068;2023-06-10T04:28:07;80.63;;;57.37;;
3811;SDS011;1921;49.368;11.068;2023-06-10T04:30:33;77.70;;;59.10;;
3811;SDS011;1921;49.368;11.068;2023-06-10T04:32:59;79.50;;;58.40;;
3811;SDS011;1921;49.368;11.068;2023-06-10T04:35:25;76.90;;;58.40;;
3811;SDS011;1921;49.368;11.068;2023-06-10T04:37:52;77.00;;;58.83;;
3811;SDS011;1921;49.368;11.068;2023-06-10T04:40:19;76.80;;;58.23;;
3811;SDS011;1921;49.368;11.068;2023-06-10T04:42:45;75.20;;;58.40;;
3811;SDS011;1921;49.368;11.068;2023-06-10T04:45:10;79.37;;;58.67;;
3811;SDS011;1921;49.368;11.068;2023-06-10T04:47:36;76.23;;;59.10;;
3811;SDS011;1921;49.368;11.068;2023-06-10T04:50:02;75.90;;;58.20;;
3811;SDS011;1921;49.368;11.068;2023-06-10T04:52:29;78.73;;;58.80;;
3811;SDS011;1921;49.368;11.068;2023-06-10T04:54:56;80.13;;;58.90;;
3811;SDS011;1921;49.368;11.068;2023-06-10T04:57:23;78.47;;;58.80;;
3811;SDS011;1921;49.368;11.068;2023-06-10T04:59:49;77.00;;;59.20;;
3811;SDS011;1921;49.368;11.068;2023-06-10T05:02:14;78.13;;;59.40;;
3811;SDS011;1921;49.368;11.068;2023-06-10T05:04:40;77.00;;;58.37;;
3811;SDS011;1921;49.368;11.068;2023-06-10T05:07:06;79.43;;;59.33;;
3811;SDS011;1921;49.368;11.068;2023-06-10T05:09:32;77.10;;;58.33;;
3811;SDS011;1921;49.368;11.068;2023-06-10T05:11:58;78.97;;;60.10;;
3811;SDS011;1921;49.368;11.068;2023-06-10T05:14:24;76.40;;;58.97;;
3811;SDS011;1921;49.368;11.068;2023-06-10T05:16:49;79.70;;;59.80;;
3811;SDS011;1921;49.368;11.068;2023-06-10T05:19:15;78.30;;;60.03;;
3811;SDS011;1921;49.368;11.068;2023-06-10T05:21:41;80.70;;;59.40;;
3811;SDS011;1921;49.368;11.068;2023-06-10T05:24:07;78.27;;;59.53;;
3811;SDS011;1921;49.368;11.068;2023-06-10T05:26:33;79.70;;;59.33;;
3811;SDS011;1921;49.368;11.068;2023-06-10T05:29:03;78.20;;;59.60;;
3811;SDS011;1921;49.368;11.068;2023-06-10T05:31:30;82.60;;;60.70;;
3811;SDS011;1921;49.368;11.068;2023-06-10T05:33:56;79.50;;;60.27;;
3811;SDS011;1921;49.368;11.068;2023-06-10T05:36:22;80.43;;;60.77;;
3811;SDS011;1921;49.368;11.068;2023-06-10T05:38:50;81.83;;;60.80;;
3811;SDS011;1921;49.368;11.068;2023-06-10T05:41:16;79.03;;;60.00;;
3811;SDS011;1921;49.368;11.068;2023-06-10T05:43:41;83.50;;;61.20;;
3811;SDS011;1921;49.368;11.068;2023-06-10T05:46:07;79.73;;;60.90;;
3811;SDS011;1921;49.368;11.068;2023-06-10T05:48:33;80.53;;;61.00;;
3811;SDS011;1921;49.368;11.068;2023-06-10T05:50:59;80.17;;;60.47;;
3811;SDS011;1921;49.368;11.068;2023-06-10T05:53:24;79.50;;;59.83;;
3811;SDS011;1921;49.368;11.068;2023-06-10T05:55:50;75.83;;;58.37;;
3811;SDS011;1921;49.368;11.068;2023-06-10T05:58:17;76.50;;;58.80;;
3811;SDS011;1921;49.368;11.068;2023-06-10T06:00:43;80.60;;;59.30;;
3811;SDS011;1921;49.368;11.068;2023-06-10T06:03:09;70.80;;;55.20;;
3811;SDS011;1921;49.368;11.068;2023-06-10T06:05:35;68.47;;;53.33;;
3811;SDS011;1921;49.368;11.068;2023-06-10T06:08:03;72.77;;;54.97;;
3811;SDS011;1921;49.368;11.068;2023-06-10T06:10:34;73.43;;;56.53;;
3811;SDS011;1921;49.368;11.068;2023-06-10T06:13:00;72.90;;;56.10;;
3811;SDS011;1921;49.368;11.068;2023-06-10T06:15:26;67.43;;;52.83;;
3811;SDS011;1921;49.368;11.068;2023-06-10T06:17:52;71.27;;;55.47;;
3811;SDS011;1921;49.368;11.068;2023-06-10T06:20:19;71.63;;;56.03;;
3811;SDS011;1921;49.368;11.068;2023-06-10T06:22:45;67.10;;;52.60;;
3811;SDS011;1921;49.368;11.068;2023-06-10T06:25:11;71.53;;;55.80;;
3811;SDS011;1921;49.368;11.068;2023-06-10T06:27:37;72.97;;;56.13;;
3811;SDS011;1921;49.368;11.068;2023-06-10T06:30:03;73.57;;;56.90;;
3811;SDS011;1921;49.368;11.068;2023-06-10T06:32:29;73.37;;;56.60;;
3811;SDS011;1921;49.368;11.068;2023-06-10T06:34:55;74.23;;;56.63;;
3811;SDS011;1921;49.368;11.068;2023-06-10T06:37:21;72.37;;;56.20;;
3811;SDS011;1921;49.368;11.068;2023-06-10T06:39:51;71.60;;;56.10;;
3811;SDS011;1921;49.368;11.068;2023-06-10T06:42:19;74.20;;;56.50;;
3811;SDS011;1921;49.368;11.068;2023-06-10T06:44:45;73.70;;;57.30;;
3811;SDS011;1921;49.368;11.068;2023-06-10T06:47:12;73.30;;;55.00;;
3811;SDS011;1921;49.368;11.068;2023-06-10T06:49:38;72.30;;;56.23;;
3811;SDS011;1921;49.368;11.068;2023-06-10T06:52:04;75.43;;;56.43;;
3811;SDS011;1921;49.368;11.068;2023-06-10T06:54:30;73.60;;;56.63;;
3811;SDS011;1921;49.368;11.068;2023-06-10T06:56:56;73.17;;;56.27;;
3811;SDS011;1921;49.368;11.068;2023-06-10T06:59:22;76.77;;;57.70;;
3811;SDS011;1921;49.368;11.068;2023-06-10T07:01:48;71.77;;;55.60;;
3811;SDS011;1921;49.368;11.068;2023-06-10T07:04:14;69.07;;;53.30;;
3811;SDS011;1921;49.368;11.068;2023-06-10T07:06:41;69.10;;;53.77;;
3811;SDS011;1921;49.368;11.068;2023-06-10T07:09:07;70.07;;;54.60;;
3811;SDS011;1921;49.368;11.068;2023-06-10T07:11:35;74.00;;;57.57;;
3811;SDS011;1921;49.368;11.068;2023-06-10T07:14:01;69.20;;;53.43;;
3811;SDS011;1921;49.368;11.068;2023-06-10T07:16:27;75.57;;;56.70;;
3811;SDS011;1921;49.368;11.068;2023-06-10T07:18:53;71.53;;;54.90;;
3811;SDS011;1921;49.368;11.068;2023-06-10T07:21:18;69.30;;;54.57;;
3811;SDS011;1921;49.368;11.068;2023-06-10T07:23:45;69.77;;;54.73;;
3811;SDS011;1921;49.368;11.068;2023-06-10T07:26:11;71.83;;;55.20;;
3811;SDS011;1921;49.368;11.068;2023-06-10T07:28:38;69.20;;;54.00;;
3811;SDS011;1921;49.368;11.068;2023-06-10T07:31:05;73.60;;;56.97;;
3811;SDS011;1921;49.368;11.068;2023-06-10T07:33:32;72.20;;;56.73;;
3811;SDS011;1921;49.368;11.068;2023-06-10T07:35:58;71.17;;;55.10;;
3811;SDS011;1921;49.368;11.068;2023-06-10T07:38:24;70.40;;;54.10;;
3811;SDS011;1921;49.368;11.068;2023-06-10T07:40:51;77.90;;;56.90;;
3811;SDS011;1921;49.368;11.068;2023-06-10T07:43:17;72.00;;;55.70;;
3811;SDS011;1921;49.368;11.068;2023-06-10T07:45:43;73.70;;;55.97;;
3811;SDS011;1921;49.368;11.068;2023-06-10T07:48:09;76.60;;;56.63;;
3811;SDS011;1921;49.368;11.068;2023-06-10T07:50:35;70.20;;;54.47;;
3811;SDS011;1921;49.368;11.068;2023-06-10T07:53:01;75.27;;;57.50;;
3811;SDS011;1921;49.368;11.068;2023-06-10T07:55:27;70.20;;;54.20;;
3811;SDS011;1921;49.368;11.068;2023-06-10T07:57:53;72.67;;;54.60;;
3811;SDS011;1921;49.368;11.068;2023-06-10T08:00:20;71.40;;;54.73;;
3811;SDS011;1921;49.368;11.068;2023-06-10T08:02:46;69.60;;;53.90;;
3811;SDS011;1921;49.368;11.068;2023-06-10T08:05:12;74.17;;;57.60;;
3811;SDS011;1921;49.368;11.068;2023-06-10T08:07:39;73.10;;;56.43;;
3811;SDS011;1921;49.368;11.068;2023-06-10T08:10:05;69.67;;;53.70;;
3811;SDS011;1921;49.368;11.068;2023-06-10T08:12:32;71.00;;;55.40;;
3811;SDS011;1921;49.368;11.068;2023-06-10T08:14:59;68.90;;;53.10;;
3811;SDS011;1921;49.368;11.068;2023-06-10T08:17:26;74.40;;;57.70;;
3811;SDS011;1921;49.368;11.068;2023-06-10T08:19:51;75.80;;;56.30;;
3811;SDS011;1921;49.368;11.068;2023-06-10T08:22:17;72.20;;;55.23;;
3811;SDS011;1921;49.368;11.068;2023-06-10T08:24:43;73.83;;;57.30;;
3811;SDS011;1921;49.368;11.068;2023-06-10T08:27:09;70.10;;;55.07;;
3811;SDS011;1921;49.368;11.068;2023-06-10T08:29:35;74.90;;;57.57;;
3811;SDS011;1921;49.368;11.068;2023-06-10T08:32:01;73.50;;;55.73;;
3811;SDS011;1921;49.368;11.068;2023-06-10T08:34:28;70.43;;;55.00;;
3811;SDS011;1921;49.368;11.068;2023-06-10T08:36:53;74.77;;;57.30;;
3811;SDS011;1921;49.368;11.068;2023-06-10T08:39:20;70.03;;;54.50;;
3811;SDS011;1921;49.368;11.068;2023-06-10T08:42:00;72.28;;;54.90;;
3811;SDS011;1921;49.368;11.068;2023-06-10T08:44:44;72.37;;;55.93;;
3811;SDS011;1921;49.368;11.068;2023-06-10T08:47:13;72.80;;;56.57;;
3811;SDS011;1921;49.368;11.068;2023-06-10T08:49:41;71.97;;;54.37;;
3811;SDS011;1921;49.368;11.068;2023-06-10T08:52:12;71.27;;;54.47;;
3811;SDS011;1921;49.368;11.068;2023-06-10T08:54:42;72.80;;;54.30;;
3811;SDS011;1921;49.368;11.068;2023-06-10T08:57:25;69.70;;;54.30;;
3811;SDS011;1921;49.368;11.068;2023-06-10T08:59:52;70.20;;;54.67;;
3811;SDS011;1921;49.368;11.068;2023-06-10T09:02:22;73.83;;;55.87;;
3811;SDS011;1921;49.368;11.068;2023-06-10T09:04:49;70.93;;;54.80;;
3811;SDS011;1921;49.368;11.068;2023-06-10T09:07:16;68.63;;;53.53;;
3811;SDS011;1921;49.368;11.068;2023-06-10T09:09:43;71.00;;;55.43;;
3811;SDS011;1921;49.368;11.068;2023-06-10T09:12:10;70.07;;;54.63;;
3811;SDS011;1921;49.368;11.068;2023-06-10T09:14:38;70.03;;;54.83;;
3811;SDS011;1921;49.368;11.068;2023-06-10T09:17:04;73.93;;;56.13;;
3811;SDS011;1921;49.368;11.068;2023-06-10T09:19:31;73.70;;;56.70;;
3811;SDS011;1921;49.368;11.068;2023-06-10T09:21:59;71.73;;;54.50;;
3811;SDS011;1921;49.368;11.068;2023-06-10T09:24:25;70.17;;;53.93;;
3811;SDS011;1921;49.368;11.068;2023-06-10T09:26:54;73.23;;;54.70;;
3811;SDS011;1921;49.368;11.068;2023-06-10T09:29:32;72.10;;;54.47;;
3811;SDS011;1921;49.368;11.068;2023-06-10T09:32:20;69.73;;;53.47;;
3811;SDS011;1921;49.368;11.068;2023-06-10T09:34:46;72.03;;;55.53;;
3811;SDS011;1921;49.368;11.068;2023-06-10T09:37:13;73.60;;;55.80;;
3811;SDS011;1921;49.368;11.068;2023-06-10T09:40:00;77.97;;;56.20;;
3811;SDS011;1921;49.368;11.068;2023-06-10T09:42:33;71.23;;;55.03;;
3811;SDS011;1921;49.368;11.068;2023-06-10T09:45:04;72.53;;;55.50;;
3811;SDS011;1921;49.368;11.068;2023-06-10T09:47:32;70.33;;;54.23;;
3811;SDS011;1921;49.368;11.068;2023-06-10T09:49:57;71.70;;;54.90;;
3811;SDS011;1921;49.368;11.068;2023-06-10T09:52:24;70.97;;;55.23;;
3811;SDS011;1921;49.368;11.068;2023-06-10T09:54:53;70.70;;;54.60;;
3811;SDS011;1921;49.368;11.068;2023-06-10T09:57:25;72.17;;;55.17;;
3811;SDS011;1921;49.368;11.068;2023-06-10T09:59:55;67.90;;;53.63;;
3811;SDS011;1921;49.368;11.068;2023-06-10T10:02:21;72.70;;;56.47;;
3811;SDS011;1921;49.368;11.068;2023-06-10T10:04:46;72.07;;;55.37;;
3811;SDS011;1921;49.368;11.068;2023-06-10T10:07:12;69.40;;;53.73;;
3811;SDS011;1921;49.368;11.068;2023-06-10T10:09:39;69.57;;;53.90;;
3811;SDS011;1921;49.368;11.068;2023-06-10T10:12:08;71.50;;;54.90;;
3811;SDS011;1921;49.368;11.068;2023-06-10T10:14:43;72.23;;;55.07;;
3811;SDS011;1921;49.368;11.068;2023-06-10T10:17:13;69.37;;;54.37;;
3811;SDS011;1921;49.368;11.068;2023-06-10T10:19:46;69.40;;;53.50;;
3811;SDS011;1921;49.368;11.068;2023-06-10T10:22:18;70.57;;;55.10;;
3811;SDS011;1921;49.368;11.068;2023-06-10T10:24:51;69.20;;;53.77;;
3811;SDS011;1921;49.368;11.068;2023-06-10T10:27:33;69.20;;;54.70;;
3811;SDS011;1921;49.368;11.068;2023-06-10T10:30:05;69.63;;;54.37;;
3811;SDS011;1921;49.368;11.068;2023-06-10T10:32:45;72.80;;;56.07;;
3811;SDS011;1921;49.368;11.068;2023-06-10T10:35:30;68.77;;;54.27;;
3811;SDS011;1921;49.368;11.068;2023-06-10T10:37:58;73.17;;;56.23;;
3811;SDS011;1921;49.368;11.068;2023-06-10T10:40:24;72.20;;;55.47;;
3811;SDS011;1921;49.368;11.068;2023-06-10T10:42:54;72.90;;;55.17;;
3811;SDS011;1921;49.368;11.068;2023-06-10T10:45:21;70.77;;;54.70;;
3811;SDS011;1921;49.368;11.068;2023-06-10T10:47:51;71.60;;;56.23;;
3811;SDS011;1921;49.368;11.068;2023-06-10T10:50:19;73.70;;;56.60;;
3811;SDS011;1921;49.368;11.068;2023-06-10T10:52:47;73.10;;;57.30;;
3811;SDS011;1921;49.368;11.068;2023-06-10T10:55:19;73.50;;;57.40;;
3811;SDS011;1921;49.368;11.068;2023-06-10T10:57:53;72.20;;;56.77;;
3811;SDS011;1921;49.368;11.068;2023-06-10T11:05:41;73.00;;;57.27;;
3811;SDS011;1921;49.368;11.068;2023-06-10T11:08:12;75.70;;;56.70;;
3811;SDS011;1921;49.368;11.068;2023-06-10T11:10:39;73.93;;;58.00;;
3811;SDS011;1921;49.368;11.068;2023-06-10T11:15:48;71.90;;;56.43;;
3811;SDS011;1921;49.368;11.068;2023-06-10T11:21:06;72.87;;;56.63;;
3811;SDS011;1921;49.368;11.068;2023-06-10T11:33:48;73.80;;;57.40;;
3811;SDS011;1921;49.368;11.068;2023-06-10T11:36:24;74.27;;;56.60;;
3811;SDS011;1921;49.368;11.068;2023-06-10T11:38:59;73.90;;;56.73;;
3811;SDS011;1921;49.368;11.068;2023-06-10T11:41:30;74.20;;;56.47;;
3811;SDS011;1921;49.368;11.068;2023-06-10T11:44:04;73.17;;;55.30;;
3811;SDS011;1921;49.368;11.068;2023-06-10T11:46:33;71.83;;;54.83;;
3811;SDS011;1921;49.368;11.068;2023-06-10T11:49:00;72.13;;;56.33;;
3811;SDS011;1921;49.368;11.068;2023-06-10T11:51:30;71.43;;;55.87;;
3811;SDS011;1921;49.368;11.068;2023-06-10T11:54:08;73.73;;;56.73;;
3811;SDS011;1921;49.368;11.068;2023-06-10T11:56:34;74.77;;;56.40;;
3811;SDS011;1921;49.368;11.068;2023-06-10T11:59:04;70.67;;;54.80;;
3811;SDS011;1921;49.368;11.068;2023-06-10T12:01:38;72.10;;;56.50;;
3811;SDS011;1921;49.368;11.068;2023-06-10T12:04:09;72.70;;;56.30;;
3811;SDS011;1921;49.368;11.068;2023-06-10T12:06:47;70.40;;;54.63;;
3811;SDS011;1921;49.368;11.068;2023-06-10T12:12:07;74.13;;;56.20;;
3811;SDS011;1921;49.368;11.068;2023-06-10T12:14:54;72.70;;;56.05;;
3811;SDS011;1921;49.368;11.068;2023-06-10T12:17:35;75.35;;;56.72;;
3811;SDS011;1921;49.368;11.068;2023-06-10T12:20:03;74.40;;;55.97;;
3811;SDS011;1921;49.368;11.068;2023-06-10T12:22:40;72.70;;;55.67;;
3811;SDS011;1921;49.368;11.068;2023-06-10T12:25:08;70.57;;;54.47;;
3811;SDS011;1921;49.368;11.068;2023-06-10T12:27:35;72.70;;;55.27;;
3811;SDS011;1921;49.368;11.068;2023-06-10T12:30:02;76.33;;;54.77;;
3811;SDS011;1921;49.368;11.068;2023-06-10T12:32:43;73.50;;;55.20;;
3811;SDS011;1921;49.368;11.068;2023-06-10T12:35:11;81.50;;;56.30;;
3811;SDS011;1921;49.368;11.068;2023-06-10T12:40:31;67.90;;;53.27;;
3811;SDS011;1921;49.368;11.068;2023-06-10T12:43:00;70.70;;;54.57;;
3811;SDS011;1921;49.368;11.068;2023-06-10T12:45:26;68.97;;;53.67;;
3811;SDS011;1921;49.368;11.068;2023-06-10T12:48:10;69.10;;;53.70;;
3811;SDS011;1921;49.368;11.068;2023-06-10T12:50:54;69.63;;;53.57;;
3811;SDS011;1921;49.368;11.068;2023-06-10T12:53:23;68.60;;;53.53;;
3811;SDS011;1921;49.368;11.068;2023-06-10T12:55:53;70.30;;;54.27;;
3811;SDS011;1921;49.368;11.068;2023-06-10T12:58:19;72.23;;;55.50;;
3811;SDS011;1921;49.368;11.068;2023-06-10T13:00:47;72.20;;;55.30;;
3811;SDS011;1921;49.368;11.068;2023-06-10T13:03:13;72.40;;;55.53;;
3811;SDS011;1921;49.368;11.068;2023-06-10T13:05:40;73.27;;;56.20;;
3811;SDS011;1921;49.368;11.068;2023-06-10T13:08:06;71.80;;;55.77;;
3811;SDS011;1921;49.368;11.068;2023-06-10T13:10:34;74.27;;;55.03;;
3811;SDS011;1921;49.368;11.068;2023-06-10T13:13:01;72.23;;;55.37;;
3811;SDS011;1921;49.368;11.068;2023-06-10T13:15:30;72.80;;;55.87;;
3811;SDS011;1921;49.368;11.068;2023-06-10T13:17:57;72.27;;;54.50;;
3811;SDS011;1921;49.368;11.068;2023-06-10T13:20:23;71.83;;;55.13;;
3811;SDS011;1921;49.368;11.068;2023-06-10T13:22:49;71.30;;;55.47;;
3811;SDS011;1921;49.368;11.068;2023-06-10T13:25:15;72.83;;;54.40;;
3811;SDS011;1921;49.368;11.068;2023-06-10T13:27:41;71.23;;;55.20;;
3811;SDS011;1921;49.368;11.068;2023-06-10T13:30:07;72.70;;;55.40;;
3811;SDS011;1921;49.368;11.068;2023-06-10T13:32:35;72.30;;;56.17;;
3811;SDS011;1921;49.368;11.068;2023-06-10T13:35:02;73.67;;;56.30;;
3811;SDS011;1921;49.368;11.068;2023-06-10T13:37:28;75.25;;;56.15;;
3811;SDS011;1921;49.368;11.068;2023-06-10T13:39:54;73.75;;;56.72;;
3811;SDS011;1921;49.368;11.068;2023-06-10T13:42:20;73.78;;;56.78;;
3811;SDS011;1921;49.368;11.068;2023-06-10T13:44:46;73.82;;;56.13;;
3811;SDS011;1921;49.368;11.068;2023-06-10T13:47:14;75.00;;;56.83;;
3811;SDS011;1921;49.368;11.068;2023-06-10T13:49:40;74.28;;;56.72;;
3811;SDS011;1921;49.368;11.068;2023-06-10T13:52:06;73.90;;;56.60;;
3811;SDS011;1921;49.368;11.068;2023-06-10T13:54:32;74.13;;;57.13;;
3811;SDS011;1921;49.368;11.068;2023-06-10T13:57:01;80.50;;;56.40;;
3811;SDS011;1921;49.368;11.068;2023-06-10T13:59:27;73.50;;;56.70;;
3811;SDS011;1921;49.368;11.068;2023-06-10T14:01:53;73.50;;;56.87;;
3811;SDS011;1921;49.368;11.068;2023-06-10T14:04:18;75.43;;;56.40;;
3811;SDS011;1921;49.368;11.068;2023-06-10T14:06:44;73.80;;;56.30;;
3811;SDS011;1921;49.368;11.068;2023-06-10T14:09:10;72.80;;;56.40;;
3811;SDS011;1921;49.368;11.068;2023-06-10T14:11:38;73.03;;;56.23;;
3811;SDS011;1921;49.368;11.068;2023-06-10T14:14:03;75.80;;;56.67;;
3811;SDS011;1921;49.368;11.068;2023-06-10T14:16:29;74.40;;;56.92;;
3811;SDS011;1921;49.368;11.068;2023-06-10T14:18:55;75.15;;;57.35;;
3811;SDS011;1921;49.368;11.068;2023-06-10T14:21:20;77.22;;;57.55;;
3811;SDS011;1921;49.368;11.068;2023-06-10T14:23:46;75.88;;;57.65;;
3811;SDS011;1921;49.368;11.068;2023-06-10T14:26:13;77.25;;;57.42;;
3811;SDS011;1921;49.368;11.068;2023-06-10T14:28:40;74.05;;;56.47;;
3811;SDS011;1921;49.368;11.068;2023-06-10T14:31:05;75.88;;;57.00;;
3811;SDS011;1921;49.368;11.068;2023-06-10T14:33:32;80.87;;;58.03;;
3811;SDS011;1921;49.368;11.068;2023-06-10T14:35:58;75.03;;;57.57;;
3811;SDS011;1921;49.368;11.068;2023-06-10T14:38:24;77.47;;;57.60;;
3811;SDS011;1921;49.368;11.068;2023-06-10T14:40:50;76.00;;;56.83;;
3811;SDS011;1921;49.368;11.068;2023-06-10T14:43:17;75.77;;;56.70;;
3811;SDS011;1921;49.368;11.068;2023-06-10T14:45:43;73.70;;;56.37;;
3811;SDS011;1921;49.368;11.068;2023-06-10T14:48:10;75.03;;;56.90;;
3811;SDS011;1921;49.368;11.068;2023-06-10T14:50:37;73.20;;;56.53;;
3811;SDS011;1921;49.368;11.068;2023-06-10T14:53:05;72.40;;;56.83;;
3811;SDS011;1921;49.368;11.068;2023-06-10T14:55:31;72.40;;;56.03;;
3811;SDS011;1921;49.368;11.068;2023-06-10T14:57:56;72.20;;;55.43;;
3811;SDS011;1921;49.368;11.068;2023-06-10T15:00:23;69.93;;;54.70;;
3811;SDS011;1921;49.368;11.068;2023-06-10T15:02:50;71.97;;;55.53;;
3811;SDS011;1921;49.368;11.068;2023-06-10T15:05:16;73.00;;;55.73;;